sensor_id;sensor_type;location;lat;lon;timestamp;P1;durP1;ratioP1;P2;durP2;ratioP2
23682;SDS011;24897;53.514;10.482;2022-08-05T00:01:49;40.87;;;32.93;;
23682;SDS011;24897;53.514;10.482;2022-08-05T00:04:34;41.80;;;33.53;;
23682;SDS011;24897;53.514;10.482;2022-08-05T00:07:18;47.63;;;36.47;;
23682;SDS011;24897;53.514;10.482;2022-08-05T00:10:03;45.47;;;34.73;;
23682;SDS011;24897;53.514;10.482;2022-08-05T00:12:48;40.27;;;34.77;;
23682;SDS011;24897;53.514;10.482;2022-08-05T00:15:32;46.50;;;36.37;;
23682;SDS011;24897;53.514;10.482;2022-08-05T00:18:16;53.30;;;37.33;;
23682;SDS011;24897;53.514;10.482;2022-08-05T00:21:00;55.10;;;39.63;;
23682;SDS011;24897;53.514;10.482;2022-08-05T00:23:45;50.03;;;36.57;;
23682;SDS011;24897;53.514;10.482;2022-08-05T00:26:30;52.07;;;37.43;;
23682;SDS011;24897;53.514;10.482;2022-08-05T00:29:15;51.10;;;38.83;;
23682;SDS011;24897;53.514;10.482;2022-08-05T00:32:02;56.87;;;39.00;;
23682;SDS011;24897;53.514;10.482;2022-08-05T00:34:51;48.90;;;36.97;;
23682;SDS011;24897;53.514;10.482;2022-08-05T00:37:36;50.90;;;37.27;;
23682;SDS011;24897;53.514;10.482;2022-08-05T00:40:22;51.30;;;38.00;;
23682;SDS011;24897;53.514;10.482;2022-08-05T00:43:08;50.63;;;38.03;;
23682;SDS011;24897;53.514;10.482;2022-08-05T00:45:52;45.17;;;36.03;;
23682;SDS011;24897;53.514;10.482;2022-08-05T00:48:39;47.23;;;36.87;;
23682;SDS011;24897;53.514;10.482;2022-08-05T00:51:26;46.50;;;37.67;;
23682;SDS011;24897;53.514;10.482;2022-08-05T00:54:14;42.83;;;35.13;;
23682;SDS011;24897;53.514;10.482;2022-08-05T00:56:58;49.43;;;36.97;;
23682;SDS011;24897;53.514;10.482;2022-08-05T00:59:42;42.50;;;35.47;;
23682;SDS011;24897;53.514;10.482;2022-08-05T01:02:27;43.90;;;35.83;;
23682;SDS011;24897;53.514;10.482;2022-08-05T01:05:11;50.70;;;37.53;;
23682;SDS011;24897;53.514;10.482;2022-08-05T01:07:55;44.27;;;34.57;;
23682;SDS011;24897;53.514;10.482;2022-08-05T01:10:45;52.73;;;39.23;;
23682;SDS011;24897;53.514;10.482;2022-08-05T01:17:11;42.67;;;35.57;;
23682;SDS011;24897;53.514;10.482;2022-08-05T01:22:57;45.57;;;36.27;;
23682;SDS011;24897;53.514;10.482;2022-08-05T01:29:20;40.83;;;33.83;;
23682;SDS011;24897;53.514;10.482;2022-08-05T01:32:10;36.50;;;32.40;;
23682;SDS011;24897;53.514;10.482;2022-08-05T01:34:57;37.00;;;33.03;;
23682;SDS011;24897;53.514;10.482;2022-08-05T01:37:50;35.33;;;31.57;;
23682;SDS011;24897;53.514;10.482;2022-08-05T01:40:40;39.07;;;33.57;;
23682;SDS011;24897;53.514;10.482;2022-08-05T01:43:25;35.23;;;31.47;;
23682;SDS011;24897;53.514;10.482;2022-08-05T01:46:10;36.37;;;31.37;;
23682;SDS011;24897;53.514;10.482;2022-08-05T01:48:55;36.37;;;32.43;;
23682;SDS011;24897;53.514;10.482;2022-08-05T01:51:41;34.33;;;30.83;;
23682;SDS011;24897;53.514;10.482;2022-08-05T01:54:28;33.23;;;29.90;;
23682;SDS011;24897;53.514;10.482;2022-08-05T01:57:19;33.00;;;29.70;;
23682;SDS011;24897;53.514;10.482;2022-08-05T02:00:11;32.67;;;29.37;;
23682;SDS011;24897;53.514;10.482;2022-08-05T02:02:57;34.77;;;30.83;;
23682;SDS011;24897;53.514;10.482;2022-08-05T02:05:46;31.83;;;28.57;;
23682;SDS011;24897;53.514;10.482;2022-08-05T02:08:31;32.73;;;29.23;;
23682;SDS011;24897;53.514;10.482;2022-08-05T02:11:20;30.67;;;27.57;;
23682;SDS011;24897;53.514;10.482;2022-08-05T02:14:12;32.73;;;28.63;;
23682;SDS011;24897;53.514;10.482;2022-08-05T02:17:04;31.67;;;28.20;;
23682;SDS011;24897;53.514;10.482;2022-08-05T02:19:56;30.43;;;27.63;;
23682;SDS011;24897;53.514;10.482;2022-08-05T02:22:45;29.93;;;26.90;;
23682;SDS011;24897;53.514;10.482;2022-08-05T02:25:33;31.83;;;28.47;;
23682;SDS011;24897;53.514;10.482;2022-08-05T02:28:21;29.93;;;27.13;;
23682;SDS011;24897;53.514;10.482;2022-08-05T02:31:08;31.40;;;28.40;;
23682;SDS011;24897;53.514;10.482;2022-08-05T02:34:08;30.13;;;27.03;;
23682;SDS011;24897;53.514;10.482;2022-08-05T02:36:59;29.47;;;26.57;;
23682;SDS011;24897;53.514;10.482;2022-08-05T02:39:45;30.30;;;27.23;;
23682;SDS011;24897;53.514;10.482;2022-08-05T02:42:31;28.73;;;25.83;;
23682;SDS011;24897;53.514;10.482;2022-08-05T02:45:17;29.43;;;26.33;;
23682;SDS011;24897;53.514;10.482;2022-08-05T02:48:01;29.27;;;26.23;;
23682;SDS011;24897;53.514;10.482;2022-08-05T02:50:47;27.63;;;25.00;;
23682;SDS011;24897;53.514;10.482;2022-08-05T02:53:34;29.03;;;26.07;;
23682;SDS011;24897;53.514;10.482;2022-08-05T02:56:22;28.93;;;26.03;;
23682;SDS011;24897;53.514;10.482;2022-08-05T02:59:08;32.67;;;29.13;;
23682;SDS011;24897;53.514;10.482;2022-08-05T03:01:54;35.67;;;29.40;;
23682;SDS011;24897;53.514;10.482;2022-08-05T03:04:43;30.13;;;27.23;;
23682;SDS011;24897;53.514;10.482;2022-08-05T03:07:28;31.97;;;28.93;;
23682;SDS011;24897;53.514;10.482;2022-08-05T03:10:14;31.90;;;28.80;;
23682;SDS011;24897;53.514;10.482;2022-08-05T03:12:59;32.03;;;29.07;;
23682;SDS011;24897;53.514;10.482;2022-08-05T03:15:43;32.83;;;29.73;;
23682;SDS011;24897;53.514;10.482;2022-08-05T03:18:29;34.43;;;31.07;;
23682;SDS011;24897;53.514;10.482;2022-08-05T03:21:13;38.77;;;34.87;;
23682;SDS011;24897;53.514;10.482;2022-08-05T03:23:58;68.30;;;62.13;;
23682;SDS011;24897;53.514;10.482;2022-08-05T03:26:43;82.47;;;75.27;;
23682;SDS011;24897;53.514;10.482;2022-08-05T03:29:29;82.13;;;74.60;;
23682;SDS011;24897;53.514;10.482;2022-08-05T03:32:13;72.90;;;66.40;;
23682;SDS011;24897;53.514;10.482;2022-08-05T03:34:58;62.37;;;56.10;;
23682;SDS011;24897;53.514;10.482;2022-08-05T03:37:43;63.40;;;57.13;;
23682;SDS011;24897;53.514;10.482;2022-08-05T03:40:28;68.83;;;61.73;;
23682;SDS011;24897;53.514;10.482;2022-08-05T03:43:13;64.33;;;58.20;;
23682;SDS011;24897;53.514;10.482;2022-08-05T03:45:59;66.00;;;59.33;;
23682;SDS011;24897;53.514;10.482;2022-08-05T03:48:44;65.60;;;58.70;;
23682;SDS011;24897;53.514;10.482;2022-08-05T03:51:34;63.73;;;57.70;;
23682;SDS011;24897;53.514;10.482;2022-08-05T03:54:27;60.13;;;54.17;;
23682;SDS011;24897;53.514;10.482;2022-08-05T03:57:19;53.27;;;47.93;;
23682;SDS011;24897;53.514;10.482;2022-08-05T04:00:09;52.17;;;47.27;;
23682;SDS011;24897;53.514;10.482;2022-08-05T04:02:57;54.67;;;49.47;;
23682;SDS011;24897;53.514;10.482;2022-08-05T04:05:45;54.83;;;49.23;;
23682;SDS011;24897;53.514;10.482;2022-08-05T04:08:31;56.57;;;50.37;;
23682;SDS011;24897;53.514;10.482;2022-08-05T04:11:17;53.63;;;48.37;;
23682;SDS011;24897;53.514;10.482;2022-08-05T04:14:01;51.90;;;46.47;;
23682;SDS011;24897;53.514;10.482;2022-08-05T04:16:46;51.90;;;46.63;;
23682;SDS011;24897;53.514;10.482;2022-08-05T04:19:39;58.80;;;49.30;;
23682;SDS011;24897;53.514;10.482;2022-08-05T04:22:28;50.87;;;45.37;;
23682;SDS011;24897;53.514;10.482;2022-08-05T04:25:13;52.17;;;45.53;;
23682;SDS011;24897;53.514;10.482;2022-08-05T04:27:57;52.03;;;45.17;;
23682;SDS011;24897;53.514;10.482;2022-08-05T04:30:41;52.50;;;43.80;;
23682;SDS011;24897;53.514;10.482;2022-08-05T04:33:26;48.40;;;43.23;;
23682;SDS011;24897;53.514;10.482;2022-08-05T04:36:11;45.87;;;40.97;;
23682;SDS011;24897;53.514;10.482;2022-08-05T04:38:57;42.90;;;38.53;;
23682;SDS011;24897;53.514;10.482;2022-08-05T04:41:42;44.13;;;39.43;;
23682;SDS011;24897;53.514;10.482;2022-08-05T04:44:26;45.13;;;38.97;;
23682;SDS011;24897;53.514;10.482;2022-08-05T04:47:10;42.13;;;37.73;;
23682;SDS011;24897;53.514;10.482;2022-08-05T04:49:55;41.47;;;37.07;;
23682;SDS011;24897;53.514;10.482;2022-08-05T04:52:39;41.80;;;37.43;;
23682;SDS011;24897;53.514;10.482;2022-08-05T04:55:23;41.83;;;37.27;;
23682;SDS011;24897;53.514;10.482;2022-08-05T04:58:09;42.13;;;37.53;;
23682;SDS011;24897;53.514;10.482;2022-08-05T05:00:58;41.33;;;36.93;;
23682;SDS011;24897;53.514;10.482;2022-08-05T05:03:42;41.87;;;36.63;;
23682;SDS011;24897;53.514;10.482;2022-08-05T05:06:27;40.40;;;35.40;;
23682;SDS011;24897;53.514;10.482;2022-08-05T05:09:12;44.73;;;38.33;;
23682;SDS011;24897;53.514;10.482;2022-08-05T05:11:56;41.80;;;37.30;;
23682;SDS011;24897;53.514;10.482;2022-08-05T05:14:40;41.53;;;37.00;;
23682;SDS011;24897;53.514;10.482;2022-08-05T05:17:24;39.50;;;35.47;;
23682;SDS011;24897;53.514;10.482;2022-08-05T05:20:09;38.43;;;34.40;;
23682;SDS011;24897;53.514;10.482;2022-08-05T05:22:55;44.03;;;37.80;;
23682;SDS011;24897;53.514;10.482;2022-08-05T05:25:42;40.30;;;34.70;;
23682;SDS011;24897;53.514;10.482;2022-08-05T05:28:27;39.93;;;35.20;;
23682;SDS011;24897;53.514;10.482;2022-08-05T05:31:12;42.13;;;36.33;;
23682;SDS011;24897;53.514;10.482;2022-08-05T05:33:56;40.47;;;36.10;;
23682;SDS011;24897;53.514;10.482;2022-08-05T05:36:41;40.50;;;35.10;;
23682;SDS011;24897;53.514;10.482;2022-08-05T05:39:26;37.57;;;33.67;;
23682;SDS011;24897;53.514;10.482;2022-08-05T05:42:13;37.60;;;33.70;;
23682;SDS011;24897;53.514;10.482;2022-08-05T05:44:57;37.10;;;33.20;;
23682;SDS011;24897;53.514;10.482;2022-08-05T05:47:44;36.93;;;33.13;;
23682;SDS011;24897;53.514;10.482;2022-08-05T05:50:29;37.43;;;32.10;;
23682;SDS011;24897;53.514;10.482;2022-08-05T05:53:13;37.33;;;32.53;;
23682;SDS011;24897;53.514;10.482;2022-08-05T05:55:58;34.70;;;31.17;;
23682;SDS011;24897;53.514;10.482;2022-08-05T05:58:42;35.03;;;31.53;;
23682;SDS011;24897;53.514;10.482;2022-08-05T06:01:27;34.90;;;31.30;;
23682;SDS011;24897;53.514;10.482;2022-08-05T06:04:12;34.47;;;30.83;;
23682;SDS011;24897;53.514;10.482;2022-08-05T06:06:56;34.57;;;30.97;;
23682;SDS011;24897;53.514;10.482;2022-08-05T06:09:40;35.10;;;31.47;;
23682;SDS011;24897;53.514;10.482;2022-08-05T06:12:25;33.77;;;30.30;;
23682;SDS011;24897;53.514;10.482;2022-08-05T06:15:09;36.00;;;32.37;;
23682;SDS011;24897;53.514;10.482;2022-08-05T06:17:54;35.50;;;31.70;;
23682;SDS011;24897;53.514;10.482;2022-08-05T06:20:38;34.67;;;31.17;;
23682;SDS011;24897;53.514;10.482;2022-08-05T06:23:22;33.93;;;30.63;;
23682;SDS011;24897;53.514;10.482;2022-08-05T06:26:07;34.53;;;31.13;;
23682;SDS011;24897;53.514;10.482;2022-08-05T06:28:51;35.17;;;31.77;;
23682;SDS011;24897;53.514;10.482;2022-08-05T06:31:35;35.30;;;31.70;;
23682;SDS011;24897;53.514;10.482;2022-08-05T06:34:20;35.37;;;31.63;;
23682;SDS011;24897;53.514;10.482;2022-08-05T06:37:04;34.33;;;30.43;;
23682;SDS011;24897;53.514;10.482;2022-08-05T06:39:49;33.80;;;30.37;;
23682;SDS011;24897;53.514;10.482;2022-08-05T06:42:33;34.67;;;31.10;;
23682;SDS011;24897;53.514;10.482;2022-08-05T06:45:17;36.90;;;32.03;;
23682;SDS011;24897;53.514;10.482;2022-08-05T06:48:02;34.37;;;30.77;;
23682;SDS011;24897;53.514;10.482;2022-08-05T06:50:47;33.73;;;30.40;;
23682;SDS011;24897;53.514;10.482;2022-08-05T06:53:31;33.30;;;30.10;;
23682;SDS011;24897;53.514;10.482;2022-08-05T06:56:16;34.03;;;30.57;;
23682;SDS011;24897;53.514;10.482;2022-08-05T06:59:02;32.50;;;29.40;;
23682;SDS011;24897;53.514;10.482;2022-08-05T07:01:47;32.40;;;29.20;;
23682;SDS011;24897;53.514;10.482;2022-08-05T07:04:31;31.53;;;28.53;;
23682;SDS011;24897;53.514;10.482;2022-08-05T07:07:18;32.60;;;29.37;;
23682;SDS011;24897;53.514;10.482;2022-08-05T07:10:03;32.63;;;29.43;;
23682;SDS011;24897;53.514;10.482;2022-08-05T07:12:48;33.23;;;29.67;;
23682;SDS011;24897;53.514;10.482;2022-08-05T07:15:54;31.20;;;28.40;;
23682;SDS011;24897;53.514;10.482;2022-08-05T07:18:57;30.53;;;27.67;;
23682;SDS011;24897;53.514;10.482;2022-08-05T07:21:42;31.10;;;27.77;;
23682;SDS011;24897;53.514;10.482;2022-08-05T07:24:32;31.27;;;28.27;;
23682;SDS011;24897;53.514;10.482;2022-08-05T07:27:17;30.13;;;27.37;;
23682;SDS011;24897;53.514;10.482;2022-08-05T07:30:01;30.93;;;28.13;;
23682;SDS011;24897;53.514;10.482;2022-08-05T07:32:45;30.57;;;27.70;;
23682;SDS011;24897;53.514;10.482;2022-08-05T07:35:30;29.67;;;27.00;;
23682;SDS011;24897;53.514;10.482;2022-08-05T07:38:16;32.33;;;29.33;;
23682;SDS011;24897;53.514;10.482;2022-08-05T07:41:07;30.03;;;27.43;;
23682;SDS011;24897;53.514;10.482;2022-08-05T07:43:54;30.57;;;27.47;;
23682;SDS011;24897;53.514;10.482;2022-08-05T07:46:40;30.83;;;27.97;;
23682;SDS011;24897;53.514;10.482;2022-08-05T07:49:24;30.80;;;27.77;;
23682;SDS011;24897;53.514;10.482;2022-08-05T07:52:09;32.33;;;29.33;;
23682;SDS011;24897;53.514;10.482;2022-08-05T07:54:53;31.80;;;28.90;;
23682;SDS011;24897;53.514;10.482;2022-08-05T07:57:37;31.97;;;28.97;;
23682;SDS011;24897;53.514;10.482;2022-08-05T08:00:22;32.43;;;29.33;;
23682;SDS011;24897;53.514;10.482;2022-08-05T08:03:10;32.37;;;29.47;;
23682;SDS011;24897;53.514;10.482;2022-08-05T08:05:55;31.33;;;28.43;;
23682;SDS011;24897;53.514;10.482;2022-08-05T08:08:39;31.67;;;28.77;;
23682;SDS011;24897;53.514;10.482;2022-08-05T08:11:23;32.17;;;29.27;;
23682;SDS011;24897;53.514;10.482;2022-08-05T08:14:07;32.17;;;29.33;;
23682;SDS011;24897;53.514;10.482;2022-08-05T08:16:51;31.87;;;28.87;;
23682;SDS011;24897;53.514;10.482;2022-08-05T08:19:36;33.13;;;29.83;;
23682;SDS011;24897;53.514;10.482;2022-08-05T08:22:24;32.97;;;29.73;;
23682;SDS011;24897;53.514;10.482;2022-08-05T08:25:09;32.23;;;29.33;;
23682;SDS011;24897;53.514;10.482;2022-08-05T08:27:54;32.37;;;29.30;;
23682;SDS011;24897;53.514;10.482;2022-08-05T08:30:38;33.73;;;30.47;;
23682;SDS011;24897;53.514;10.482;2022-08-05T08:33:23;35.40;;;31.80;;
23682;SDS011;24897;53.514;10.482;2022-08-05T08:36:08;34.07;;;30.87;;
23682;SDS011;24897;53.514;10.482;2022-08-05T08:38:52;34.67;;;31.37;;
23682;SDS011;24897;53.514;10.482;2022-08-05T08:41:39;37.67;;;33.97;;
23682;SDS011;24897;53.514;10.482;2022-08-05T08:44:24;36.80;;;33.23;;
23682;SDS011;24897;53.514;10.482;2022-08-05T08:47:13;38.60;;;34.90;;
23682;SDS011;24897;53.514;10.482;2022-08-05T08:49:58;41.53;;;37.83;;
23682;SDS011;24897;53.514;10.482;2022-08-05T08:52:48;44.00;;;39.73;;
23682;SDS011;24897;53.514;10.482;2022-08-05T08:55:35;42.37;;;38.40;;
23682;SDS011;24897;53.514;10.482;2022-08-05T08:58:21;39.53;;;35.73;;
23682;SDS011;24897;53.514;10.482;2022-08-05T09:01:06;39.53;;;35.63;;
23682;SDS011;24897;53.514;10.482;2022-08-05T09:03:51;36.77;;;33.27;;
23682;SDS011;24897;53.514;10.482;2022-08-05T09:06:36;39.17;;;35.27;;
23682;SDS011;24897;53.514;10.482;2022-08-05T09:09:20;40.37;;;36.43;;
23682;SDS011;24897;53.514;10.482;2022-08-05T09:12:08;40.13;;;36.00;;
23682;SDS011;24897;53.514;10.482;2022-08-05T09:14:53;35.90;;;32.50;;
23682;SDS011;24897;53.514;10.482;2022-08-05T09:17:38;37.27;;;33.57;;
23682;SDS011;24897;53.514;10.482;2022-08-05T09:20:23;38.20;;;34.50;;
23682;SDS011;24897;53.514;10.482;2022-08-05T09:23:08;37.40;;;33.80;;
23682;SDS011;24897;53.514;10.482;2022-08-05T09:26:09;37.50;;;34.00;;
23682;SDS011;24897;53.514;10.482;2022-08-05T09:28:59;37.20;;;33.73;;
23682;SDS011;24897;53.514;10.482;2022-08-05T09:31:59;39.70;;;35.50;;
23682;SDS011;24897;53.514;10.482;2022-08-05T09:34:51;41.33;;;37.13;;
23682;SDS011;24897;53.514;10.482;2022-08-05T09:37:38;42.33;;;37.07;;
23682;SDS011;24897;53.514;10.482;2022-08-05T09:46:31;39.67;;;35.90;;
23682;SDS011;24897;53.514;10.482;2022-08-05T09:49:22;37.33;;;33.73;;
23682;SDS011;24897;53.514;10.482;2022-08-05T09:55:11;38.20;;;34.47;;
23682;SDS011;24897;53.514;10.482;2022-08-05T09:57:56;37.23;;;33.43;;
23682;SDS011;24897;53.514;10.482;2022-08-05T10:00:53;40.43;;;36.43;;
23682;SDS011;24897;53.514;10.482;2022-08-05T10:06:52;35.67;;;32.37;;
23682;SDS011;24897;53.514;10.482;2022-08-05T10:09:40;34.63;;;31.33;;
23682;SDS011;24897;53.514;10.482;2022-08-05T10:12:49;36.47;;;32.97;;
23682;SDS011;24897;53.514;10.482;2022-08-05T10:15:35;39.73;;;35.83;;
23682;SDS011;24897;53.514;10.482;2022-08-05T10:18:23;38.00;;;34.23;;
23682;SDS011;24897;53.514;10.482;2022-08-05T10:21:09;43.97;;;39.50;;
23682;SDS011;24897;53.514;10.482;2022-08-05T10:23:54;38.33;;;34.53;;
23682;SDS011;24897;53.514;10.482;2022-08-05T10:26:39;38.87;;;34.87;;
23682;SDS011;24897;53.514;10.482;2022-08-05T10:29:25;39.60;;;35.70;;
23682;SDS011;24897;53.514;10.482;2022-08-05T10:32:11;38.30;;;34.43;;
23682;SDS011;24897;53.514;10.482;2022-08-05T10:34:55;36.23;;;32.77;;
23682;SDS011;24897;53.514;10.482;2022-08-05T10:37:41;38.13;;;34.23;;
23682;SDS011;24897;53.514;10.482;2022-08-05T10:46:41;36.37;;;32.77;;
23682;SDS011;24897;53.514;10.482;2022-08-05T10:49:29;36.70;;;33.03;;
23682;SDS011;24897;53.514;10.482;2022-08-05T10:52:14;38.50;;;34.80;;
23682;SDS011;24897;53.514;10.482;2022-08-05T10:56:00;37.00;;;33.30;;
23682;SDS011;24897;53.514;10.482;2022-08-05T11:01:38;37.30;;;33.73;;
23682;SDS011;24897;53.514;10.482;2022-08-05T11:04:26;37.90;;;34.10;;
23682;SDS011;24897;53.514;10.482;2022-08-05T11:07:11;36.00;;;32.30;;
23682;SDS011;24897;53.514;10.482;2022-08-05T11:10:01;35.77;;;32.27;;
23682;SDS011;24897;53.514;10.482;2022-08-05T11:12:46;37.77;;;33.87;;
23682;SDS011;24897;53.514;10.482;2022-08-05T11:15:31;36.07;;;32.33;;
23682;SDS011;24897;53.514;10.482;2022-08-05T11:18:29;34.33;;;30.90;;
23682;SDS011;24897;53.514;10.482;2022-08-05T11:21:32;33.53;;;30.23;;
23682;SDS011;24897;53.514;10.482;2022-08-05T11:24:16;35.87;;;32.37;;
23682;SDS011;24897;53.514;10.482;2022-08-05T11:30:11;34.17;;;30.83;;
23682;SDS011;24897;53.514;10.482;2022-08-05T11:33:23;34.20;;;30.97;;
23682;SDS011;24897;53.514;10.482;2022-08-05T11:36:16;34.37;;;31.03;;
23682;SDS011;24897;53.514;10.482;2022-08-05T11:39:02;34.30;;;30.83;;
23682;SDS011;24897;53.514;10.482;2022-08-05T11:41:50;32.80;;;29.80;;
23682;SDS011;24897;53.514;10.482;2022-08-05T11:44:35;35.93;;;32.20;;
23682;SDS011;24897;53.514;10.482;2022-08-05T11:47:22;32.87;;;29.73;;
23682;SDS011;24897;53.514;10.482;2022-08-05T11:50:07;33.07;;;29.93;;
23682;SDS011;24897;53.514;10.482;2022-08-05T11:52:51;36.40;;;32.83;;
23682;SDS011;24897;53.514;10.482;2022-08-05T11:55:36;33.77;;;30.30;;
23682;SDS011;24897;53.514;10.482;2022-08-05T11:58:24;36.43;;;32.50;;
23682;SDS011;24897;53.514;10.482;2022-08-05T12:01:19;34.50;;;31.10;;
23682;SDS011;24897;53.514;10.482;2022-08-05T12:04:04;32.27;;;29.17;;
23682;SDS011;24897;53.514;10.482;2022-08-05T12:06:48;31.87;;;28.73;;
23682;SDS011;24897;53.514;10.482;2022-08-05T12:09:37;30.50;;;27.63;;
23682;SDS011;24897;53.514;10.482;2022-08-05T12:12:24;31.70;;;28.50;;
23682;SDS011;24897;53.514;10.482;2022-08-05T12:15:19;30.23;;;27.23;;
23682;SDS011;24897;53.514;10.482;2022-08-05T12:18:03;30.30;;;27.27;;
23682;SDS011;24897;53.514;10.482;2022-08-05T12:20:48;30.17;;;27.33;;
23682;SDS011;24897;53.514;10.482;2022-08-05T12:23:32;30.17;;;27.37;;
23682;SDS011;24897;53.514;10.482;2022-08-05T12:26:16;30.37;;;27.57;;
23682;SDS011;24897;53.514;10.482;2022-08-05T12:29:05;32.47;;;29.10;;
23682;SDS011;24897;53.514;10.482;2022-08-05T12:31:56;31.00;;;28.00;;
23682;SDS011;24897;53.514;10.482;2022-08-05T12:34:42;31.67;;;28.63;;
23682;SDS011;24897;53.514;10.482;2022-08-05T12:37:26;32.60;;;29.37;;
23682;SDS011;24897;53.514;10.482;2022-08-05T12:40:12;31.97;;;28.90;;
23682;SDS011;24897;53.514;10.482;2022-08-05T12:42:58;31.50;;;28.50;;
23682;SDS011;24897;53.514;10.482;2022-08-05T12:45:52;33.03;;;29.90;;
23682;SDS011;24897;53.514;10.482;2022-08-05T12:48:38;32.73;;;29.83;;
23682;SDS011;24897;53.514;10.482;2022-08-05T12:51:22;31.23;;;28.27;;
23682;SDS011;24897;53.514;10.482;2022-08-05T12:54:07;29.03;;;26.23;;
23682;SDS011;24897;53.514;10.482;2022-08-05T12:56:53;27.97;;;25.53;;
23682;SDS011;24897;53.514;10.482;2022-08-05T13:02:34;24.90;;;22.80;;
23682;SDS011;24897;53.514;10.482;2022-08-05T13:05:18;25.03;;;22.83;;
23682;SDS011;24897;53.514;10.482;2022-08-05T13:08:03;24.60;;;22.40;;
23682;SDS011;24897;53.514;10.482;2022-08-05T13:10:47;24.60;;;22.50;;
23682;SDS011;24897;53.514;10.482;2022-08-05T13:13:32;25.23;;;23.03;;
23682;SDS011;24897;53.514;10.482;2022-08-05T13:16:20;25.37;;;23.30;;
23682;SDS011;24897;53.514;10.482;2022-08-05T13:19:09;25.87;;;23.73;;
23682;SDS011;24897;53.514;10.482;2022-08-05T13:21:56;26.10;;;24.00;;
23682;SDS011;24897;53.514;10.482;2022-08-05T13:24:40;26.33;;;24.03;;
23682;SDS011;24897;53.514;10.482;2022-08-05T13:27:25;27.67;;;24.47;;
23682;SDS011;24897;53.514;10.482;2022-08-05T13:30:14;33.93;;;30.53;;
23682;SDS011;24897;53.514;10.482;2022-08-05T13:33:00;28.37;;;25.87;;
23682;SDS011;24897;53.514;10.482;2022-08-05T13:35:44;26.50;;;24.07;;
23682;SDS011;24897;53.514;10.482;2022-08-05T13:38:28;26.50;;;24.20;;
23682;SDS011;24897;53.514;10.482;2022-08-05T13:41:12;29.27;;;26.40;;
23682;SDS011;24897;53.514;10.482;2022-08-05T13:43:59;27.03;;;24.43;;
23682;SDS011;24897;53.514;10.482;2022-08-05T13:46:43;28.73;;;26.10;;
23682;SDS011;24897;53.514;10.482;2022-08-05T13:49:27;25.87;;;23.60;;
23682;SDS011;24897;53.514;10.482;2022-08-05T13:52:16;26.83;;;24.43;;
23682;SDS011;24897;53.514;10.482;2022-08-05T13:55:04;25.50;;;23.13;;
23682;SDS011;24897;53.514;10.482;2022-08-05T13:57:49;25.43;;;23.13;;
23682;SDS011;24897;53.514;10.482;2022-08-05T14:00:33;25.63;;;23.50;;
23682;SDS011;24897;53.514;10.482;2022-08-05T14:03:19;27.00;;;24.60;;
23682;SDS011;24897;53.514;10.482;2022-08-05T14:06:03;24.47;;;22.27;;
23682;SDS011;24897;53.514;10.482;2022-08-05T14:08:47;25.37;;;23.00;;
23682;SDS011;24897;53.514;10.482;2022-08-05T14:11:31;26.20;;;24.00;;
23682;SDS011;24897;53.514;10.482;2022-08-05T14:14:15;25.07;;;22.97;;
23682;SDS011;24897;53.514;10.482;2022-08-05T14:16:59;23.33;;;21.43;;
23682;SDS011;24897;53.514;10.482;2022-08-05T14:19:44;25.50;;;23.30;;
23682;SDS011;24897;53.514;10.482;2022-08-05T14:22:28;24.57;;;22.10;;
23682;SDS011;24897;53.514;10.482;2022-08-05T14:25:12;22.43;;;20.43;;
23682;SDS011;24897;53.514;10.482;2022-08-05T14:28:01;21.80;;;19.93;;
23682;SDS011;24897;53.514;10.482;2022-08-05T14:30:46;22.07;;;20.07;;
23682;SDS011;24897;53.514;10.482;2022-08-05T14:33:33;22.57;;;20.53;;
23682;SDS011;24897;53.514;10.482;2022-08-05T14:36:17;23.43;;;21.43;;
23682;SDS011;24897;53.514;10.482;2022-08-05T14:39:02;23.20;;;21.30;;
23682;SDS011;24897;53.514;10.482;2022-08-05T14:41:48;27.50;;;25.00;;
23682;SDS011;24897;53.514;10.482;2022-08-05T14:44:33;23.47;;;21.17;;
23682;SDS011;24897;53.514;10.482;2022-08-05T14:47:17;21.93;;;19.93;;
23682;SDS011;24897;53.514;10.482;2022-08-05T14:50:01;20.70;;;18.87;;
23682;SDS011;24897;53.514;10.482;2022-08-05T14:52:46;22.27;;;20.47;;
23682;SDS011;24897;53.514;10.482;2022-08-05T14:55:30;19.63;;;18.03;;
23682;SDS011;24897;53.514;10.482;2022-08-05T14:58:15;18.90;;;17.23;;
23682;SDS011;24897;53.514;10.482;2022-08-05T15:00:59;21.27;;;19.57;;
23682;SDS011;24897;53.514;10.482;2022-08-05T15:03:43;23.73;;;21.63;;
23682;SDS011;24897;53.514;10.482;2022-08-05T15:06:27;22.63;;;20.70;;
23682;SDS011;24897;53.514;10.482;2022-08-05T15:09:12;26.00;;;23.57;;
23682;SDS011;24897;53.514;10.482;2022-08-05T15:11:57;23.43;;;21.53;;
23682;SDS011;24897;53.514;10.482;2022-08-05T15:14:42;25.77;;;23.17;;
23682;SDS011;24897;53.514;10.482;2022-08-05T15:17:27;25.80;;;23.50;;
23682;SDS011;24897;53.514;10.482;2022-08-05T15:20:11;24.17;;;21.97;;
23682;SDS011;24897;53.514;10.482;2022-08-05T15:23:01;26.00;;;23.80;;
23682;SDS011;24897;53.514;10.482;2022-08-05T15:25:53;27.57;;;25.17;;
23682;SDS011;24897;53.514;10.482;2022-08-05T15:28:37;23.67;;;21.73;;
23682;SDS011;24897;53.514;10.482;2022-08-05T15:31:21;24.47;;;22.37;;
23682;SDS011;24897;53.514;10.482;2022-08-05T15:34:05;25.90;;;23.70;;
23682;SDS011;24897;53.514;10.482;2022-08-05T15:36:50;25.20;;;23.10;;
23682;SDS011;24897;53.514;10.482;2022-08-05T15:39:34;25.57;;;23.30;;
23682;SDS011;24897;53.514;10.482;2022-08-05T15:42:18;25.10;;;22.80;;
23682;SDS011;24897;53.514;10.482;2022-08-05T15:45:02;25.63;;;23.17;;
23682;SDS011;24897;53.514;10.482;2022-08-05T15:47:47;22.57;;;20.63;;
23682;SDS011;24897;53.514;10.482;2022-08-05T15:50:31;22.50;;;20.70;;
23682;SDS011;24897;53.514;10.482;2022-08-05T15:53:16;23.27;;;21.27;;
23682;SDS011;24897;53.514;10.482;2022-08-05T15:56:00;22.77;;;20.67;;
23682;SDS011;24897;53.514;10.482;2022-08-05T15:58:44;22.70;;;20.73;;
23682;SDS011;24897;53.514;10.482;2022-08-05T16:01:29;21.87;;;19.97;;
23682;SDS011;24897;53.514;10.482;2022-08-05T16:04:13;21.43;;;19.60;;
23682;SDS011;24897;53.514;10.482;2022-08-05T16:06:57;23.30;;;21.20;;
23682;SDS011;24897;53.514;10.482;2022-08-05T16:09:42;23.33;;;21.50;;
23682;SDS011;24897;53.514;10.482;2022-08-05T16:12:26;22.47;;;20.47;;
23682;SDS011;24897;53.514;10.482;2022-08-05T16:15:10;22.80;;;21.00;;
23682;SDS011;24897;53.514;10.482;2022-08-05T16:17:55;22.37;;;20.57;;
23682;SDS011;24897;53.514;10.482;2022-08-05T16:20:39;24.50;;;22.30;;
23682;SDS011;24897;53.514;10.482;2022-08-05T16:23:23;25.67;;;23.47;;
23682;SDS011;24897;53.514;10.482;2022-08-05T16:26:08;32.20;;;27.10;;
23682;SDS011;24897;53.514;10.482;2022-08-05T16:28:53;28.73;;;26.13;;
23682;SDS011;24897;53.514;10.482;2022-08-05T16:31:38;25.97;;;23.77;;
23682;SDS011;24897;53.514;10.482;2022-08-05T16:34:23;21.63;;;19.73;;
23682;SDS011;24897;53.514;10.482;2022-08-05T16:37:08;24.27;;;22.27;;